createdAt,value
2023-01-03T00:00:41.082Z,8.60
2023-01-03T00:03:28.979Z,8.30
2023-01-03T00:05:56.823Z,7.40
2023-01-03T00:08:24.656Z,5.70
2023-01-03T00:10:52.489Z,6.70
2023-01-03T00:13:20.442Z,7.70
2023-01-03T00:15:48.314Z,4.80
2023-01-03T00:18:16.173Z,4.10
2023-01-03T00:20:44.120Z,5.30
2023-01-03T00:23:11.989Z,4.90
2023-01-03T00:25:39.812Z,4.20
2023-01-03T00:28:07.701Z,3.80
2023-01-03T00:30:35.812Z,3.40
2023-01-03T00:33:04.158Z,4.60
2023-01-03T00:35:32.392Z,5.00
2023-01-03T00:38:00.242Z,4.70
2023-01-03T00:40:28.056Z,4.20
2023-01-03T00:43:14.604Z,5.10
2023-01-03T00:45:42.472Z,3.70
2023-01-03T00:48:10.343Z,4.10
2023-01-03T00:50:38.280Z,4.80
2023-01-03T00:53:06.134Z,4.40
2023-01-03T00:55:34.969Z,4.80
2023-01-03T00:58:02.855Z,4.90
2023-01-03T01:00:30.897Z,6.10
2023-01-03T01:02:58.976Z,6.10
2023-01-03T01:05:29.690Z,5.40
2023-01-03T01:07:58.154Z,3.90
2023-01-03T01:10:26.049Z,4.50
2023-01-03T01:12:58.356Z,6.20
2023-01-03T01:15:26.184Z,5.00
2023-01-03T01:17:54.037Z,5.00
2023-01-03T01:20:21.902Z,5.70
2023-01-03T01:22:49.765Z,3.90
2023-01-03T01:25:17.625Z,3.00
2023-01-03T01:27:45.530Z,4.00
2023-01-03T01:30:13.645Z,3.40
2023-01-03T01:32:41.523Z,3.30
2023-01-03T01:35:09.575Z,3.20
2023-01-03T01:37:37.410Z,3.40
2023-01-03T01:40:05.781Z,4.10
2023-01-03T01:42:52.103Z,7.90
2023-01-03T01:45:19.904Z,4.30
2023-01-03T01:47:54.893Z,5.50
2023-01-03T01:50:35.004Z,5.00
2023-01-03T01:53:07.347Z,6.30
2023-01-03T01:55:41.227Z,4.50
2023-01-03T01:58:10.045Z,4.80
2023-01-03T02:00:39.891Z,5.20
2023-01-03T02:03:08.203Z,3.70
2023-01-03T02:05:39.432Z,3.20
2023-01-03T02:08:07.341Z,4.00
2023-01-03T02:11:03.029Z,3.40
2023-01-03T02:13:38.419Z,4.00
2023-01-03T02:16:41.843Z,3.50
2023-01-03T02:19:32.388Z,2.70
2023-01-03T02:22:34.075Z,3.90
2023-01-03T02:25:23.394Z,2.60
2023-01-03T02:28:00.410Z,3.00
2023-01-03T02:30:48.276Z,2.70
2023-01-03T02:33:22.209Z,2.70
2023-01-03T02:36:26.429Z,2.50
2023-01-03T02:39:09.762Z,2.00
2023-01-03T02:42:16.856Z,2.30
2023-01-03T02:45:40.091Z,2.00
2023-01-03T02:48:28.862Z,1.80
2023-01-03T02:51:00.824Z,1.60
2023-01-03T02:53:37.973Z,2.20
2023-01-03T02:56:10.268Z,2.50
2023-01-03T02:58:40.532Z,1.60
2023-01-03T03:01:11.250Z,3.50
2023-01-03T03:03:40.959Z,1.40
2023-01-03T03:06:08.985Z,1.40
2023-01-03T03:08:37.179Z,1.60
2023-01-03T03:11:23.781Z,1.90
2023-01-03T03:14:08.785Z,2.30
2023-01-03T03:16:49.643Z,3.20
2023-01-03T03:19:44.219Z,2.50
2023-01-03T03:23:06.103Z,3.00
2023-01-03T03:25:41.996Z,2.00
2023-01-03T03:28:34.015Z,1.60
2023-01-03T03:31:32.246Z,1.40
2023-01-03T03:34:08.936Z,1.70
2023-01-03T03:36:58.136Z,1.30
2023-01-03T03:39:46.846Z,1.60
2023-01-03T03:42:54.916Z,1.70
2023-01-03T03:45:30.227Z,2.40
2023-01-03T03:48:06.198Z,1.50
2023-01-03T03:50:43.068Z,1.30
2023-01-03T03:53:12.644Z,1.60
2023-01-03T03:55:47.782Z,1.50
2023-01-03T03:58:21.339Z,1.50
2023-01-03T04:03:21.628Z,2.20
2023-01-03T04:05:57.192Z,1.60
2023-01-03T04:08:25.120Z,1.50
2023-01-03T04:11:05.490Z,1.80
2023-01-03T04:13:35.404Z,2.70
2023-01-03T04:16:04.316Z,1.50
2023-01-03T04:18:33.211Z,1.60
2023-01-03T04:21:01.337Z,1.40
2023-01-03T04:23:29.283Z,2.00
2023-01-03T04:25:57.148Z,1.60
2023-01-03T04:28:25.124Z,1.70
2023-01-03T04:30:53.054Z,2.80
2023-01-03T04:33:20.924Z,2.00
2023-01-03T04:35:48.759Z,1.70
2023-01-03T04:38:16.905Z,2.00
2023-01-03T04:40:44.721Z,1.60
2023-01-03T04:43:31.284Z,2.30
2023-01-03T04:45:59.334Z,2.10
2023-01-03T04:48:27.293Z,3.20
2023-01-03T04:50:57.511Z,2.10
2023-01-03T04:53:26.778Z,2.70
2023-01-03T04:55:56.906Z,2.40
2023-01-03T04:58:25.271Z,1.70
2023-01-03T05:00:59.017Z,2.40
2023-01-03T05:03:28.056Z,2.20
2023-01-03T05:06:05.658Z,3.30
2023-01-03T05:08:34.064Z,4.40
2023-01-03T05:11:02.738Z,5.60
2023-01-03T05:13:30.923Z,2.20
2023-01-03T05:16:05.137Z,2.20
2023-01-03T05:18:33.534Z,3.10
2023-01-03T05:21:34.202Z,3.80
2023-01-03T05:24:21.248Z,2.80
2023-01-03T05:26:49.732Z,2.60
2023-01-03T05:29:21.026Z,2.90
2023-01-03T05:31:49.616Z,3.80
2023-01-03T05:34:17.620Z,4.50
2023-01-03T05:36:45.570Z,2.60
2023-01-03T05:39:13.598Z,3.50
2023-01-03T05:42:00.261Z,2.60
2023-01-03T05:44:30.626Z,2.70
2023-01-03T05:47:00.709Z,2.90
2023-01-03T05:49:28.671Z,3.20
2023-01-03T05:51:56.547Z,5.40
2023-01-03T05:54:24.845Z,8.30
2023-01-03T05:56:52.773Z,5.00
2023-01-03T05:59:21.244Z,4.10
2023-01-03T06:01:49.671Z,4.20
2023-01-03T06:04:17.732Z,4.90
2023-01-03T06:06:45.605Z,4.20
2023-01-03T06:09:13.459Z,6.50
2023-01-03T06:11:41.362Z,3.90
2023-01-03T06:14:10.206Z,3.70
2023-01-03T06:16:56.922Z,2.80
2023-01-03T06:19:25.377Z,5.60
2023-01-03T06:21:53.269Z,3.60
2023-01-03T06:24:21.167Z,4.10
2023-01-03T06:26:49.269Z,6.30
2023-01-03T06:29:17.209Z,5.50
2023-01-03T06:31:45.069Z,8.10
2023-01-03T06:34:13.012Z,5.90
2023-01-03T06:36:40.945Z,7.60
2023-01-03T06:39:09.012Z,4.20
2023-01-03T06:41:37.053Z,3.90
2023-01-03T06:44:05.187Z,9.40
2023-01-03T06:46:51.763Z,4.10
2023-01-03T06:49:38.324Z,13.30
2023-01-03T06:52:32.806Z,4.50
2023-01-03T06:55:01.313Z,6.70
2023-01-03T06:57:29.209Z,5.30
2023-01-03T06:59:57.211Z,5.80
2023-01-03T07:02:25.320Z,7.20
2023-01-03T07:04:53.732Z,7.50
2023-01-03T07:07:21.612Z,8.00
2023-01-03T07:09:50.699Z,4.00
2023-01-03T07:12:37.975Z,4.70
2023-01-03T07:15:06.559Z,3.90
2023-01-03T07:17:34.494Z,6.20
2023-01-03T07:20:02.590Z,6.40
2023-01-03T07:22:30.655Z,6.20
2023-01-03T07:24:58.637Z,13.50
2023-01-03T07:27:26.615Z,11.60
2023-01-03T07:29:54.955Z,8.50
2023-01-03T07:32:22.819Z,11.20
2023-01-03T07:34:50.712Z,9.50
2023-01-03T07:37:19.040Z,16.10
2023-01-03T07:39:46.985Z,11.90
2023-01-03T07:42:33.580Z,8.40
2023-01-03T07:45:01.846Z,18.30
2023-01-03T07:47:29.804Z,5.10
2023-01-03T07:49:57.614Z,18.90
2023-01-03T07:52:25.584Z,80.30
2023-01-03T07:54:53.532Z,84.00
2023-01-03T07:57:21.350Z,120.80
2023-01-03T07:59:49.364Z,187.20
2023-01-03T08:02:17.472Z,67.20
2023-01-03T08:04:45.471Z,10.80
2023-01-03T08:07:13.455Z,26.60
2023-01-03T08:10:13.387Z,59.20
2023-01-03T08:12:59.673Z,23.00
2023-01-03T08:15:27.575Z,27.60
2023-01-03T08:17:55.543Z,14.50
2023-01-03T08:20:23.421Z,16.20
2023-01-03T08:22:51.285Z,21.60
2023-01-03T08:25:19.090Z,14.70
2023-01-03T08:27:50.438Z,31.20
2023-01-03T08:30:18.779Z,39.00
2023-01-03T08:32:46.925Z,51.90
2023-01-03T08:35:16.209Z,15.20
2023-01-03T08:37:46.500Z,23.80
2023-01-03T08:40:17.814Z,27.00
2023-01-03T08:42:47.339Z,108.20
2023-01-03T08:45:17.989Z,32.10
2023-01-03T08:47:47.017Z,20.80
2023-01-03T08:50:15.776Z,7.70
2023-01-03T08:52:43.777Z,9.90
2023-01-03T08:55:11.679Z,18.90
2023-01-03T08:57:40.367Z,37.40
2023-01-03T09:00:08.965Z,9.80
2023-01-03T09:02:37.088Z,27.30
2023-01-03T09:05:05.500Z,11.50
2023-01-03T09:07:33.397Z,14.20
2023-01-03T09:10:01.319Z,20.60
2023-01-03T09:12:29.240Z,12.70
2023-01-03T09:14:57.504Z,22.10
2023-01-03T09:17:25.525Z,19.70
2023-01-03T09:19:53.477Z,17.60
2023-01-03T09:22:21.467Z,12.00
2023-01-03T09:24:49.412Z,9.80
2023-01-03T09:27:17.296Z,11.30
2023-01-03T09:29:45.193Z,11.70
2023-01-03T09:32:13.030Z,8.00
2023-01-03T09:34:40.949Z,9.40
2023-01-03T09:37:08.830Z,11.90
2023-01-03T09:39:36.830Z,13.00
2023-01-03T09:42:24.199Z,6.40
2023-01-03T09:44:53.245Z,6.10
2023-01-03T09:47:26.004Z,12.50
2023-01-03T09:53:04.043Z,14.80
2023-01-03T09:56:12.097Z,7.60
2023-01-03T09:58:59.929Z,12.50
2023-01-03T10:02:10.518Z,7.80
2023-01-03T10:05:03.078Z,7.30
2023-01-03T10:07:33.741Z,9.60
2023-01-03T10:10:29.815Z,13.20
2023-01-03T10:13:07.021Z,41.60
2023-01-03T10:16:06.787Z,72.70
2023-01-03T10:18:47.985Z,31.80
2023-01-03T10:21:52.166Z,62.60
2023-01-03T10:24:24.945Z,23.20
2023-01-03T10:27:13.708Z,20.40
2023-01-03T10:29:42.079Z,84.60
2023-01-03T10:32:18.118Z,55.40
2023-01-03T10:35:02.474Z,28.00
2023-01-03T10:37:30.446Z,63.90
2023-01-03T10:40:05.110Z,21.00
2023-01-03T10:42:35.319Z,22.10
2023-01-03T10:45:06.743Z,39.30
2023-01-03T10:47:34.609Z,11.30
2023-01-03T10:50:04.847Z,94.10
2023-01-03T10:52:41.609Z,170.90
2023-01-03T10:55:16.146Z,32.80
2023-01-03T10:57:53.305Z,15.90
2023-01-03T11:00:38.087Z,20.50
2023-01-03T11:03:09.744Z,30.60
2023-01-03T11:05:40.285Z,32.30
2023-01-03T11:08:21.482Z,9.70
2023-01-03T11:10:52.698Z,13.10
2023-01-03T11:15:55.833Z,7.10
2023-01-03T11:18:27.683Z,9.10
2023-01-03T11:21:23.696Z,32.10
2023-01-03T11:23:54.541Z,16.00
2023-01-03T11:26:46.534Z,9.90
2023-01-03T11:29:36.098Z,15.20
2023-01-03T11:32:21.775Z,32.50
2023-01-03T11:35:26.235Z,59.10
2023-01-03T11:42:39.765Z,27.20
2023-01-03T11:45:36.033Z,46.40
2023-01-03T11:52:01.982Z,125.40
2023-01-03T11:54:57.415Z,12.80
2023-01-03T11:57:43.405Z,32.00
2023-01-03T12:00:39.922Z,21.90
2023-01-03T12:03:24.734Z,98.60
2023-01-03T12:06:31.603Z,41.30
2023-01-03T12:09:23.140Z,33.90
2023-01-03T12:12:20.347Z,14.80
2023-01-03T12:14:54.222Z,20.40
2023-01-03T12:17:27.875Z,11.30
2023-01-03T12:20:11.723Z,7.50
2023-01-03T12:22:44.672Z,10.00
2023-01-03T12:25:30.148Z,20.20
2023-01-03T12:28:10.433Z,30.70
2023-01-03T12:30:48.420Z,12.40
2023-01-03T12:33:31.030Z,14.80
2023-01-03T12:36:06.107Z,10.70
2023-01-03T12:38:44.815Z,5.30
2023-01-03T12:41:59.705Z,6.50
2023-01-03T12:44:34.402Z,4.50
2023-01-03T12:47:03.795Z,16.80
2023-01-03T12:49:38.617Z,6.70
2023-01-03T12:52:16.691Z,4.80
2023-01-03T12:54:57.773Z,5.40
2023-01-03T12:57:50.855Z,8.50
2023-01-03T13:00:41.156Z,5.00
2023-01-03T13:03:35.708Z,8.00
2023-01-03T13:06:16.237Z,10.50
2023-01-03T13:08:53.555Z,8.30
2023-01-03T13:11:34.367Z,7.70
2023-01-03T13:14:19.737Z,8.10
2023-01-03T13:16:50.133Z,13.00
2023-01-03T13:19:24.214Z,5.70
2023-01-03T13:21:55.066Z,9.10
2023-01-03T13:24:52.597Z,7.20
2023-01-03T13:27:38.165Z,3.70
2023-01-03T13:30:22.153Z,4.70
2023-01-03T13:35:43.037Z,8.90
2023-01-03T13:38:39.168Z,4.50
2023-01-03T13:41:29.813Z,5.10
2023-01-03T13:44:08.385Z,17.50
2023-01-03T13:46:41.988Z,12.30
2023-01-03T13:51:45.247Z,8.00
2023-01-03T13:54:13.315Z,16.70
2023-01-03T13:56:44.384Z,13.10
2023-01-03T13:59:15.528Z,7.20
2023-01-03T14:02:21.377Z,9.60
2023-01-03T14:05:01.911Z,8.00
2023-01-03T14:07:54.895Z,11.80
2023-01-03T14:11:01.053Z,16.00
2023-01-03T14:13:48.027Z,13.90
2023-01-03T14:16:43.506Z,9.90
2023-01-03T14:19:25.712Z,7.30
2023-01-03T14:21:54.175Z,13.60
2023-01-03T14:24:26.695Z,8.40
2023-01-03T14:27:02.899Z,5.90
2023-01-03T14:29:31.282Z,9.40
2023-01-03T14:32:00.481Z,8.00
2023-01-03T14:34:33.639Z,14.20
2023-01-03T14:37:07.864Z,10.10
2023-01-03T14:42:06.621Z,18.30
2023-01-03T14:44:35.039Z,19.30
2023-01-03T14:47:07.501Z,15.00
2023-01-03T14:49:41.672Z,13.20
2023-01-03T14:52:21.151Z,13.90
2023-01-03T14:54:54.487Z,18.60
2023-01-03T14:57:27.478Z,9.30
2023-01-03T14:59:59.711Z,9.20
2023-01-03T15:02:34.231Z,13.20
2023-01-03T15:05:03.007Z,15.90
2023-01-03T15:07:43.242Z,20.10
2023-01-03T15:10:11.259Z,19.50
2023-01-03T15:12:43.946Z,15.10
2023-01-03T15:15:28.326Z,27.70
2023-01-03T15:18:01.468Z,31.90
2023-01-03T15:20:42.039Z,31.70
2023-01-03T15:23:34.615Z,32.90
2023-01-03T15:26:02.655Z,24.60
2023-01-03T15:28:36.535Z,36.30
2023-01-03T15:31:28.020Z,45.70
2023-01-03T15:34:13.858Z,23.30
2023-01-03T15:36:49.039Z,22.80
2023-01-03T15:39:23.537Z,23.20
2023-01-03T15:42:43.541Z,24.20
2023-01-03T15:45:19.415Z,18.20
2023-01-03T15:47:49.241Z,20.00
2023-01-03T15:50:19.530Z,20.70
2023-01-03T15:52:48.744Z,25.30
2023-01-03T15:55:17.409Z,18.60
2023-01-03T15:57:50.329Z,18.80
2023-01-03T16:00:21.802Z,18.00
2023-01-03T16:02:50.394Z,18.10
2023-01-03T16:05:22.448Z,21.90
2023-01-03T16:07:51.618Z,20.90
2023-01-03T16:10:21.716Z,28.50
2023-01-03T16:12:49.725Z,23.60
2023-01-03T16:15:22.041Z,34.40
2023-01-03T16:17:51.438Z,34.00
2023-01-03T16:20:20.018Z,38.40
2023-01-03T16:23:00.531Z,44.50
2023-01-03T16:25:29.569Z,54.10
2023-01-03T16:27:57.491Z,44.80
2023-01-03T16:30:25.521Z,51.40
2023-01-03T16:32:53.420Z,53.50
2023-01-03T16:35:21.526Z,54.00
2023-01-03T16:37:49.392Z,59.30
2023-01-03T16:40:20.535Z,47.20
2023-01-03T16:42:48.660Z,49.20
2023-01-03T16:45:17.677Z,55.80
2023-01-03T16:47:46.179Z,70.90
2023-01-03T16:50:19.111Z,60.80
2023-01-03T16:52:52.538Z,56.00
2023-01-03T16:55:34.887Z,46.40
2023-01-03T16:58:02.872Z,47.10
2023-01-03T17:00:33.554Z,39.20
2023-01-03T17:03:02.717Z,44.30
2023-01-03T17:05:36.180Z,48.10
2023-01-03T17:08:28.767Z,47.40
2023-01-03T17:10:58.523Z,46.10
2023-01-03T17:13:30.474Z,44.90
2023-01-03T17:16:00.744Z,46.50
2023-01-03T17:18:31.609Z,42.10
2023-01-03T17:21:27.987Z,50.00
2023-01-03T17:24:00.847Z,69.70
2023-01-03T17:26:31.538Z,89.60
2023-01-03T17:29:01.997Z,88.80
2023-01-03T17:31:30.368Z,74.90
2023-01-03T17:33:58.257Z,64.50
2023-01-03T17:36:30.006Z,84.80
2023-01-03T17:39:03.290Z,79.20
2023-01-03T17:41:51.698Z,69.60
2023-01-03T17:44:19.625Z,81.30
2023-01-03T17:47:06.670Z,82.50
2023-01-03T17:49:34.625Z,74.70
2023-01-03T17:52:08.938Z,55.80
2023-01-03T17:54:39.886Z,61.60
2023-01-03T17:57:12.776Z,56.00
2023-01-03T17:59:40.758Z,40.10
2023-01-03T18:02:21.755Z,49.10
2023-01-03T18:05:15.285Z,34.00
2023-01-03T18:07:38.932Z,38.30
2023-01-03T18:10:08.992Z,36.10
2023-01-03T18:12:36.940Z,40.80
2023-01-03T18:15:13.346Z,40.50
2023-01-03T18:17:41.629Z,71.90
2023-01-03T18:20:13.766Z,52.30
2023-01-03T18:22:42.859Z,60.90
2023-01-03T18:25:31.023Z,40.50
2023-01-03T18:28:02.140Z,43.60
2023-01-03T18:30:30.261Z,41.10
2023-01-03T18:32:58.198Z,39.30
2023-01-03T18:35:30.976Z,32.50
2023-01-03T18:38:02.014Z,39.90
2023-01-03T18:40:30.645Z,34.90
2023-01-03T18:43:09.335Z,38.70
2023-01-03T18:45:38.671Z,51.70
2023-01-03T18:48:12.222Z,62.00
2023-01-03T18:50:40.690Z,41.00
2023-01-03T18:53:37.751Z,33.30
2023-01-03T18:56:05.939Z,26.60
2023-01-03T18:58:39.817Z,24.80
2023-01-03T19:01:10.373Z,29.40
2023-01-03T19:03:42.498Z,38.70
2023-01-03T19:06:17.860Z,34.60
2023-01-03T19:08:46.789Z,29.80
2023-01-03T19:11:18.620Z,40.60
2023-01-03T19:13:53.320Z,38.50
2023-01-03T19:16:24.413Z,35.00
2023-01-03T19:18:53.381Z,38.20
2023-01-03T19:21:31.254Z,50.80
2023-01-03T19:24:04.281Z,58.20
2023-01-03T19:26:35.327Z,60.30
2023-01-03T19:29:06.134Z,52.30
2023-01-03T19:31:44.454Z,51.20
2023-01-03T19:34:16.510Z,55.10
2023-01-03T19:36:45.157Z,51.20
2023-01-03T19:39:13.917Z,51.80
2023-01-03T19:42:05.002Z,41.60
2023-01-03T19:44:33.935Z,41.30
2023-01-03T19:47:03.020Z,47.10
2023-01-03T19:49:30.942Z,48.90
2023-01-03T19:51:58.847Z,50.10
2023-01-03T19:54:26.788Z,51.40
2023-01-03T19:56:57.632Z,56.70
2023-01-03T19:59:29.679Z,66.00
2023-01-03T20:02:24.206Z,65.70
2023-01-03T20:04:46.185Z,65.90
2023-01-03T20:07:14.505Z,66.00
2023-01-03T20:09:42.508Z,66.40
2023-01-03T20:12:14.807Z,75.30
2023-01-03T20:14:51.464Z,74.00
2023-01-03T20:17:28.145Z,81.80
2023-01-03T20:19:56.032Z,87.60
2023-01-03T20:23:02.482Z,91.00
2023-01-03T20:25:24.443Z,78.90
2023-01-03T20:27:53.727Z,76.20
2023-01-03T20:30:24.220Z,65.40
2023-01-03T20:32:52.541Z,56.70
2023-01-03T20:38:12.337Z,50.90
2023-01-03T20:40:40.410Z,51.60
2023-01-03T20:43:13.464Z,44.60
2023-01-03T20:45:41.675Z,47.10
2023-01-03T20:48:20.845Z,51.30
2023-01-03T20:50:53.013Z,63.40
2023-01-03T20:53:24.319Z,65.50
2023-01-03T20:55:53.198Z,74.50
2023-01-03T20:58:25.446Z,80.90
2023-01-03T21:01:02.112Z,73.60
2023-01-03T21:03:33.882Z,74.60
2023-01-03T21:06:04.154Z,70.10
2023-01-03T21:08:51.116Z,66.00
2023-01-03T21:11:19.112Z,65.80
2023-01-03T21:13:47.064Z,72.00
2023-01-03T21:16:38.163Z,67.20
2023-01-03T21:19:17.635Z,60.00
2023-01-03T21:21:48.142Z,56.20
2023-01-03T21:24:18.852Z,52.00
2023-01-03T21:26:46.770Z,53.00
2023-01-03T21:29:15.056Z,52.70
2023-01-03T21:31:43.897Z,49.30
2023-01-03T21:34:19.980Z,48.50
2023-01-03T21:36:49.878Z,43.50
2023-01-03T21:39:17.853Z,40.80
2023-01-03T21:42:04.556Z,44.90
2023-01-03T21:44:32.499Z,39.50
2023-01-03T21:47:00.492Z,40.40
2023-01-03T21:49:28.448Z,37.60
2023-01-03T21:51:56.368Z,30.70
2023-01-03T21:54:24.359Z,32.40
2023-01-03T21:56:52.309Z,33.80
2023-01-03T21:59:20.201Z,32.90
2023-01-03T22:02:06.820Z,31.70
2023-01-03T22:04:35.489Z,33.70
2023-01-03T22:07:03.498Z,28.50
2023-01-03T22:09:50.594Z,29.00
2023-01-03T22:12:19.583Z,29.00
2023-01-03T22:14:48.028Z,26.30
2023-01-03T22:17:16.379Z,24.60
2023-01-03T22:19:44.463Z,26.90
2023-01-03T22:22:12.471Z,27.40
2023-01-03T22:24:40.447Z,25.00
2023-01-03T22:27:08.476Z,27.60
2023-01-03T22:29:36.377Z,26.50
2023-01-03T22:32:04.697Z,27.40
2023-01-03T22:34:32.777Z,24.60
2023-01-03T22:37:00.708Z,23.30
2023-01-03T22:39:28.662Z,22.60
2023-01-03T22:41:57.115Z,21.30
2023-01-03T22:44:25.247Z,25.50
2023-01-03T22:46:53.169Z,24.50
2023-01-03T22:49:21.090Z,22.60
2023-01-03T22:51:49.045Z,18.40
2023-01-03T22:54:16.955Z,20.20
2023-01-03T22:56:45.428Z,19.90
2023-01-03T22:59:13.406Z,20.20
2023-01-03T23:01:41.825Z,18.90
2023-01-03T23:04:10.313Z,21.50
2023-01-03T23:06:38.366Z,20.40
2023-01-03T23:09:06.331Z,21.90
2023-01-03T23:11:52.746Z,16.70
2023-01-03T23:14:23.751Z,16.80
2023-01-03T23:16:53.403Z,18.50
2023-01-03T23:19:24.826Z,20.70
2023-01-03T23:21:53.613Z,22.50
2023-01-03T23:24:24.508Z,21.60
2023-01-03T23:26:53.573Z,22.10
2023-01-03T23:29:22.306Z,22.70
2023-01-03T23:31:50.167Z,25.50
2023-01-03T23:34:18.168Z,32.80
2023-01-03T23:36:46.085Z,35.10
2023-01-03T23:39:16.561Z,39.20
2023-01-03T23:41:45.659Z,49.90
2023-01-03T23:44:13.709Z,42.50
2023-01-03T23:46:41.942Z,49.50
2023-01-03T23:49:13.401Z,49.90
2023-01-03T23:51:41.419Z,55.90
2023-01-03T23:54:10.456Z,47.40
2023-01-03T23:56:38.739Z,44.80
2023-01-03T23:59:06.705Z,39.30
